sensor_id;sensor_type;location;lat;lon;timestamp;P1;durP1;ratioP1;P2;durP2;ratioP2
13343;SDS011;6741;48.964;9.406;2024-02-16T00:00:23;5.07;;;3.63;;
13343;SDS011;6741;48.964;9.406;2024-02-16T00:02:50;3.73;;;3.07;;
13343;SDS011;6741;48.964;9.406;2024-02-16T00:05:17;5.97;;;3.53;;
13343;SDS011;6741;48.964;9.406;2024-02-16T00:07:44;4.87;;;3.00;;
13343;SDS011;6741;48.964;9.406;2024-02-16T00:10:13;3.87;;;3.40;;
13343;SDS011;6741;48.964;9.406;2024-02-16T00:12:40;4.77;;;3.97;;
13343;SDS011;6741;48.964;9.406;2024-02-16T00:15:07;5.80;;;3.70;;
13343;SDS011;6741;48.964;9.406;2024-02-16T00:17:35;5.93;;;3.50;;
13343;SDS011;6741;48.964;9.406;2024-02-16T00:20:03;3.23;;;2.93;;
13343;SDS011;6741;48.964;9.406;2024-02-16T00:22:32;4.33;;;3.47;;
13343;SDS011;6741;48.964;9.406;2024-02-16T00:24:59;5.77;;;3.40;;
13343;SDS011;6741;48.964;9.406;2024-02-16T00:27:27;5.07;;;3.20;;
13343;SDS011;6741;48.964;9.406;2024-02-16T00:29:54;3.20;;;2.90;;
13343;SDS011;6741;48.964;9.406;2024-02-16T00:32:20;3.10;;;2.80;;
13343;SDS011;6741;48.964;9.406;2024-02-16T00:34:49;4.43;;;3.47;;
13343;SDS011;6741;48.964;9.406;2024-02-16T00:37:18;4.53;;;3.57;;
13343;SDS011;6741;48.964;9.406;2024-02-16T00:39:46;4.47;;;3.47;;
13343;SDS011;6741;48.964;9.406;2024-02-16T00:42:13;5.73;;;3.70;;
13343;SDS011;6741;48.964;9.406;2024-02-16T00:44:41;3.37;;;3.07;;
13343;SDS011;6741;48.964;9.406;2024-02-16T00:47:08;3.90;;;3.30;;
13343;SDS011;6741;48.964;9.406;2024-02-16T00:49:35;4.30;;;3.90;;
13343;SDS011;6741;48.964;9.406;2024-02-16T00:52:02;8.13;;;4.63;;
13343;SDS011;6741;48.964;9.406;2024-02-16T00:54:30;5.07;;;4.57;;
13343;SDS011;6741;48.964;9.406;2024-02-16T00:56:57;9.50;;;5.53;;
13343;SDS011;6741;48.964;9.406;2024-02-16T00:59:27;5.83;;;4.50;;
13343;SDS011;6741;48.964;9.406;2024-02-16T01:01:55;7.13;;;5.13;;
13343;SDS011;6741;48.964;9.406;2024-02-16T01:04:23;6.27;;;5.10;;
13343;SDS011;6741;48.964;9.406;2024-02-16T01:06:50;6.50;;;5.00;;
13343;SDS011;6741;48.964;9.406;2024-02-16T01:09:16;7.07;;;5.63;;
13343;SDS011;6741;48.964;9.406;2024-02-16T01:11:43;9.37;;;5.57;;
13343;SDS011;6741;48.964;9.406;2024-02-16T01:14:10;6.83;;;5.30;;
13343;SDS011;6741;48.964;9.406;2024-02-16T01:16:37;6.63;;;5.13;;
13343;SDS011;6741;48.964;9.406;2024-02-16T01:19:05;6.27;;;3.57;;
13343;SDS011;6741;48.964;9.406;2024-02-16T01:21:32;4.40;;;3.20;;
13343;SDS011;6741;48.964;9.406;2024-02-16T01:24:01;4.53;;;3.20;;
13343;SDS011;6741;48.964;9.406;2024-02-16T01:26:28;4.90;;;3.10;;
13343;SDS011;6741;48.964;9.406;2024-02-16T01:28:55;3.53;;;2.80;;
13343;SDS011;6741;48.964;9.406;2024-02-16T01:31:23;3.80;;;2.90;;
13343;SDS011;6741;48.964;9.406;2024-02-16T01:33:49;5.63;;;2.80;;
13343;SDS011;6741;48.964;9.406;2024-02-16T01:36:18;6.23;;;2.67;;
13343;SDS011;6741;48.964;9.406;2024-02-16T01:38:45;5.43;;;2.93;;
13343;SDS011;6741;48.964;9.406;2024-02-16T01:41:12;3.00;;;2.70;;
13343;SDS011;6741;48.964;9.406;2024-02-16T01:43:40;3.00;;;2.80;;
13343;SDS011;6741;48.964;9.406;2024-02-16T01:46:07;3.27;;;2.90;;
13343;SDS011;6741;48.964;9.406;2024-02-16T01:48:34;3.77;;;2.70;;
13343;SDS011;6741;48.964;9.406;2024-02-16T01:51:00;4.70;;;2.73;;
13343;SDS011;6741;48.964;9.406;2024-02-16T01:53:29;5.20;;;2.93;;
13343;SDS011;6741;48.964;9.406;2024-02-16T01:55:57;5.23;;;2.47;;
13343;SDS011;6741;48.964;9.406;2024-02-16T01:58:24;2.93;;;2.47;;
13343;SDS011;6741;48.964;9.406;2024-02-16T02:00:52;4.10;;;2.60;;
13343;SDS011;6741;48.964;9.406;2024-02-16T02:03:19;3.77;;;2.67;;
13343;SDS011;6741;48.964;9.406;2024-02-16T02:05:48;2.60;;;2.40;;
13343;SDS011;6741;48.964;9.406;2024-02-16T02:08:16;3.90;;;3.00;;
13343;SDS011;6741;48.964;9.406;2024-02-16T02:10:44;2.63;;;2.43;;
13343;SDS011;6741;48.964;9.406;2024-02-16T02:13:11;2.97;;;2.30;;
13343;SDS011;6741;48.964;9.406;2024-02-16T02:15:38;2.83;;;2.40;;
13343;SDS011;6741;48.964;9.406;2024-02-16T02:18:04;3.87;;;2.77;;
13343;SDS011;6741;48.964;9.406;2024-02-16T02:20:31;3.83;;;2.67;;
13343;SDS011;6741;48.964;9.406;2024-02-16T02:23:00;4.63;;;3.20;;
13343;SDS011;6741;48.964;9.406;2024-02-16T02:25:27;3.50;;;3.20;;
13343;SDS011;6741;48.964;9.406;2024-02-16T02:27:54;3.67;;;2.87;;
13343;SDS011;6741;48.964;9.406;2024-02-16T02:30:21;3.43;;;2.60;;
13343;SDS011;6741;48.964;9.406;2024-02-16T02:32:52;4.13;;;2.40;;
13343;SDS011;6741;48.964;9.406;2024-02-16T02:35:19;3.17;;;2.20;;
13343;SDS011;6741;48.964;9.406;2024-02-16T02:37:46;2.93;;;2.63;;
13343;SDS011;6741;48.964;9.406;2024-02-16T02:40:15;3.83;;;2.53;;
13343;SDS011;6741;48.964;9.406;2024-02-16T02:42:42;2.70;;;2.30;;
13343;SDS011;6741;48.964;9.406;2024-02-16T02:45:09;3.33;;;2.50;;
13343;SDS011;6741;48.964;9.406;2024-02-16T02:47:36;3.10;;;2.80;;
13343;SDS011;6741;48.964;9.406;2024-02-16T02:50:03;3.90;;;3.30;;
13343;SDS011;6741;48.964;9.406;2024-02-16T02:52:31;4.83;;;3.03;;
13343;SDS011;6741;48.964;9.406;2024-02-16T02:54:57;4.53;;;3.13;;
13343;SDS011;6741;48.964;9.406;2024-02-16T02:57:25;4.87;;;2.80;;
13343;SDS011;6741;48.964;9.406;2024-02-16T02:59:52;4.00;;;2.70;;
13343;SDS011;6741;48.964;9.406;2024-02-16T03:02:19;8.13;;;2.63;;
13343;SDS011;6741;48.964;9.406;2024-02-16T03:04:46;5.07;;;2.60;;
13343;SDS011;6741;48.964;9.406;2024-02-16T03:07:14;3.70;;;3.00;;
13343;SDS011;6741;48.964;9.406;2024-02-16T03:09:40;3.37;;;3.07;;
13343;SDS011;6741;48.964;9.406;2024-02-16T03:12:08;3.87;;;3.07;;
13343;SDS011;6741;48.964;9.406;2024-02-16T03:14:37;4.53;;;3.57;;
13343;SDS011;6741;48.964;9.406;2024-02-16T03:17:04;4.60;;;3.40;;
13343;SDS011;6741;48.964;9.406;2024-02-16T03:19:31;4.87;;;2.87;;
13343;SDS011;6741;48.964;9.406;2024-02-16T03:21:58;3.93;;;2.83;;
13343;SDS011;6741;48.964;9.406;2024-02-16T03:24:25;4.10;;;2.93;;
13343;SDS011;6741;48.964;9.406;2024-02-16T03:26:52;6.03;;;3.00;;
13343;SDS011;6741;48.964;9.406;2024-02-16T03:29:19;3.20;;;2.70;;
13343;SDS011;6741;48.964;9.406;2024-02-16T03:31:47;3.20;;;2.90;;
13343;SDS011;6741;48.964;9.406;2024-02-16T03:34:14;4.37;;;3.20;;
13343;SDS011;6741;48.964;9.406;2024-02-16T03:36:41;4.13;;;2.80;;
13343;SDS011;6741;48.964;9.406;2024-02-16T03:39:07;3.83;;;2.57;;
13343;SDS011;6741;48.964;9.406;2024-02-16T03:41:35;3.47;;;2.30;;
13343;SDS011;6741;48.964;9.406;2024-02-16T03:44:01;2.80;;;2.30;;
13343;SDS011;6741;48.964;9.406;2024-02-16T03:46:28;2.80;;;2.30;;
13343;SDS011;6741;48.964;9.406;2024-02-16T03:48:57;2.80;;;2.50;;
13343;SDS011;6741;48.964;9.406;2024-02-16T03:51:23;2.50;;;2.30;;
13343;SDS011;6741;48.964;9.406;2024-02-16T03:53:50;3.03;;;2.73;;
13343;SDS011;6741;48.964;9.406;2024-02-16T03:56:20;5.63;;;2.73;;
13343;SDS011;6741;48.964;9.406;2024-02-16T03:58:47;6.43;;;2.97;;
13343;SDS011;6741;48.964;9.406;2024-02-16T04:01:14;3.00;;;2.70;;
13343;SDS011;6741;48.964;9.406;2024-02-16T04:03:41;5.90;;;3.13;;
13343;SDS011;6741;48.964;9.406;2024-02-16T04:06:09;3.33;;;2.93;;
13343;SDS011;6741;48.964;9.406;2024-02-16T04:08:36;3.63;;;2.83;;
13343;SDS011;6741;48.964;9.406;2024-02-16T04:11:04;3.20;;;2.90;;
13343;SDS011;6741;48.964;9.406;2024-02-16T04:13:31;2.90;;;2.60;;
13343;SDS011;6741;48.964;9.406;2024-02-16T04:15:58;3.10;;;2.60;;
13343;SDS011;6741;48.964;9.406;2024-02-16T04:18:25;4.03;;;2.47;;
13343;SDS011;6741;48.964;9.406;2024-02-16T04:20:52;2.70;;;2.50;;
13343;SDS011;6741;48.964;9.406;2024-02-16T04:23:20;3.60;;;2.53;;
13343;SDS011;6741;48.964;9.406;2024-02-16T04:25:47;2.43;;;2.20;;
13343;SDS011;6741;48.964;9.406;2024-02-16T04:28:14;5.57;;;2.60;;
13343;SDS011;6741;48.964;9.406;2024-02-16T04:30:43;5.00;;;2.80;;
13343;SDS011;6741;48.964;9.406;2024-02-16T04:33:11;5.20;;;2.63;;
13343;SDS011;6741;48.964;9.406;2024-02-16T04:35:38;3.40;;;2.60;;
13343;SDS011;6741;48.964;9.406;2024-02-16T04:38:05;3.70;;;2.80;;
13343;SDS011;6741;48.964;9.406;2024-02-16T04:40:34;2.93;;;2.67;;
13343;SDS011;6741;48.964;9.406;2024-02-16T04:43:03;3.40;;;2.77;;
13343;SDS011;6741;48.964;9.406;2024-02-16T04:45:30;5.73;;;2.97;;
13343;SDS011;6741;48.964;9.406;2024-02-16T04:47:57;3.70;;;2.80;;
13343;SDS011;6741;48.964;9.406;2024-02-16T04:50:24;5.63;;;3.57;;
13343;SDS011;6741;48.964;9.406;2024-02-16T04:52:50;4.63;;;3.47;;
13343;SDS011;6741;48.964;9.406;2024-02-16T04:55:17;3.50;;;2.80;;
13343;SDS011;6741;48.964;9.406;2024-02-16T04:57:45;3.47;;;2.97;;
13343;SDS011;6741;48.964;9.406;2024-02-16T05:00:12;4.13;;;3.20;;
13343;SDS011;6741;48.964;9.406;2024-02-16T05:02:40;4.60;;;3.30;;
13343;SDS011;6741;48.964;9.406;2024-02-16T05:05:07;5.00;;;3.13;;
13343;SDS011;6741;48.964;9.406;2024-02-16T05:07:34;6.37;;;3.13;;
13343;SDS011;6741;48.964;9.406;2024-02-16T05:10:01;3.47;;;3.17;;
13343;SDS011;6741;48.964;9.406;2024-02-16T05:12:29;2.27;;;2.10;;
13343;SDS011;6741;48.964;9.406;2024-02-16T05:14:57;2.70;;;2.50;;
13343;SDS011;6741;48.964;9.406;2024-02-16T05:17:24;2.57;;;2.37;;
13343;SDS011;6741;48.964;9.406;2024-02-16T05:19:51;2.50;;;2.30;;
13343;SDS011;6741;48.964;9.406;2024-02-16T05:22:19;2.73;;;2.40;;
13343;SDS011;6741;48.964;9.406;2024-02-16T05:24:47;2.87;;;2.40;;
13343;SDS011;6741;48.964;9.406;2024-02-16T05:27:14;3.93;;;2.80;;
13343;SDS011;6741;48.964;9.406;2024-02-16T05:29:40;3.70;;;2.30;;
13343;SDS011;6741;48.964;9.406;2024-02-16T05:32:09;3.20;;;2.43;;
13343;SDS011;6741;48.964;9.406;2024-02-16T05:34:37;4.03;;;2.70;;
13343;SDS011;6741;48.964;9.406;2024-02-16T05:37:05;4.00;;;3.13;;
13343;SDS011;6741;48.964;9.406;2024-02-16T05:39:32;10.37;;;2.70;;
13343;SDS011;6741;48.964;9.406;2024-02-16T05:42:01;3.87;;;2.80;;
13343;SDS011;6741;48.964;9.406;2024-02-16T05:44:28;3.63;;;3.10;;
13343;SDS011;6741;48.964;9.406;2024-02-16T05:46:57;4.30;;;3.90;;
13343;SDS011;6741;48.964;9.406;2024-02-16T05:49:26;5.40;;;4.20;;
13343;SDS011;6741;48.964;9.406;2024-02-16T05:51:53;4.77;;;3.80;;
13343;SDS011;6741;48.964;9.406;2024-02-16T05:54:34;4.67;;;3.80;;
13343;SDS011;6741;48.964;9.406;2024-02-16T05:57:00;4.20;;;3.80;;
13343;SDS011;6741;48.964;9.406;2024-02-16T05:59:29;5.47;;;3.63;;
13343;SDS011;6741;48.964;9.406;2024-02-16T06:01:56;3.70;;;3.40;;
13343;SDS011;6741;48.964;9.406;2024-02-16T06:04:23;5.13;;;3.37;;
13343;SDS011;6741;48.964;9.406;2024-02-16T06:06:52;4.73;;;3.97;;
13343;SDS011;6741;48.964;9.406;2024-02-16T06:09:19;4.40;;;3.97;;
13343;SDS011;6741;48.964;9.406;2024-02-16T06:11:46;3.40;;;3.10;;
13343;SDS011;6741;48.964;9.406;2024-02-16T06:14:13;3.50;;;3.10;;
13343;SDS011;6741;48.964;9.406;2024-02-16T06:16:41;2.93;;;2.57;;
13343;SDS011;6741;48.964;9.406;2024-02-16T06:19:09;4.70;;;3.00;;
13343;SDS011;6741;48.964;9.406;2024-02-16T06:21:37;2.70;;;2.50;;
13343;SDS011;6741;48.964;9.406;2024-02-16T06:24:04;2.37;;;2.17;;
13343;SDS011;6741;48.964;9.406;2024-02-16T06:26:32;4.47;;;2.53;;
13343;SDS011;6741;48.964;9.406;2024-02-16T06:28:59;2.33;;;2.07;;
13343;SDS011;6741;48.964;9.406;2024-02-16T06:31:26;3.97;;;2.60;;
13343;SDS011;6741;48.964;9.406;2024-02-16T06:33:53;4.00;;;2.60;;
13343;SDS011;6741;48.964;9.406;2024-02-16T06:36:20;3.37;;;2.57;;
13343;SDS011;6741;48.964;9.406;2024-02-16T06:38:49;5.23;;;2.60;;
13343;SDS011;6741;48.964;9.406;2024-02-16T06:41:17;3.60;;;2.67;;
13343;SDS011;6741;48.964;9.406;2024-02-16T06:43:44;4.37;;;2.67;;
13343;SDS011;6741;48.964;9.406;2024-02-16T06:46:11;2.47;;;2.27;;
13343;SDS011;6741;48.964;9.406;2024-02-16T06:48:37;4.90;;;2.87;;
13343;SDS011;6741;48.964;9.406;2024-02-16T06:51:04;2.27;;;2.07;;
13343;SDS011;6741;48.964;9.406;2024-02-16T06:53:32;2.80;;;2.07;;
13343;SDS011;6741;48.964;9.406;2024-02-16T06:56:00;4.43;;;2.40;;
13343;SDS011;6741;48.964;9.406;2024-02-16T06:58:28;2.67;;;2.47;;
13343;SDS011;6741;48.964;9.406;2024-02-16T07:00:55;4.43;;;2.60;;
13343;SDS011;6741;48.964;9.406;2024-02-16T07:03:26;2.80;;;2.50;;
13343;SDS011;6741;48.964;9.406;2024-02-16T07:05:52;3.90;;;2.90;;
13343;SDS011;6741;48.964;9.406;2024-02-16T07:08:19;3.10;;;2.80;;
13343;SDS011;6741;48.964;9.406;2024-02-16T07:10:49;3.33;;;3.03;;
13343;SDS011;6741;48.964;9.406;2024-02-16T07:13:18;2.60;;;2.40;;
13343;SDS011;6741;48.964;9.406;2024-02-16T07:15:46;3.57;;;2.70;;
13343;SDS011;6741;48.964;9.406;2024-02-16T07:18:13;5.60;;;2.97;;
13343;SDS011;6741;48.964;9.406;2024-02-16T07:20:41;3.87;;;3.07;;
13343;SDS011;6741;48.964;9.406;2024-02-16T07:23:08;3.90;;;2.90;;
13343;SDS011;6741;48.964;9.406;2024-02-16T07:25:35;2.90;;;2.60;;
13343;SDS011;6741;48.964;9.406;2024-02-16T07:28:03;6.77;;;2.87;;
13343;SDS011;6741;48.964;9.406;2024-02-16T07:30:32;8.53;;;2.60;;
13343;SDS011;6741;48.964;9.406;2024-02-16T07:32:59;3.03;;;2.33;;
13343;SDS011;6741;48.964;9.406;2024-02-16T07:35:25;3.10;;;2.60;;
13343;SDS011;6741;48.964;9.406;2024-02-16T07:37:52;3.70;;;2.73;;
13343;SDS011;6741;48.964;9.406;2024-02-16T07:40:19;5.87;;;3.70;;
13343;SDS011;6741;48.964;9.406;2024-02-16T07:42:46;3.70;;;2.67;;
13343;SDS011;6741;48.964;9.406;2024-02-16T07:45:13;3.77;;;2.93;;
13343;SDS011;6741;48.964;9.406;2024-02-16T07:47:41;3.43;;;2.70;;
13343;SDS011;6741;48.964;9.406;2024-02-16T07:50:08;4.10;;;2.80;;
13343;SDS011;6741;48.964;9.406;2024-02-16T07:52:37;4.77;;;2.60;;
13343;SDS011;6741;48.964;9.406;2024-02-16T07:55:05;5.13;;;4.23;;
13343;SDS011;6741;48.964;9.406;2024-02-16T07:57:32;9.40;;;6.00;;
13343;SDS011;6741;48.964;9.406;2024-02-16T08:00:02;9.40;;;6.53;;
13343;SDS011;6741;48.964;9.406;2024-02-16T08:02:29;7.80;;;5.87;;
13343;SDS011;6741;48.964;9.406;2024-02-16T08:04:58;8.10;;;5.90;;
13343;SDS011;6741;48.964;9.406;2024-02-16T08:07:25;7.40;;;6.27;;
13343;SDS011;6741;48.964;9.406;2024-02-16T08:09:52;8.50;;;6.70;;
13343;SDS011;6741;48.964;9.406;2024-02-16T08:12:19;10.03;;;7.20;;
13343;SDS011;6741;48.964;9.406;2024-02-16T08:14:46;10.07;;;6.90;;
13343;SDS011;6741;48.964;9.406;2024-02-16T08:17:13;10.07;;;6.23;;
13343;SDS011;6741;48.964;9.406;2024-02-16T08:19:40;17.77;;;6.93;;
13343;SDS011;6741;48.964;9.406;2024-02-16T08:22:08;14.47;;;7.30;;
13343;SDS011;6741;48.964;9.406;2024-02-16T08:24:36;16.37;;;7.70;;
13343;SDS011;6741;48.964;9.406;2024-02-16T08:27:04;13.37;;;6.70;;
13343;SDS011;6741;48.964;9.406;2024-02-16T08:29:31;9.90;;;6.50;;
13343;SDS011;6741;48.964;9.406;2024-02-16T08:31:59;9.10;;;5.07;;
13343;SDS011;6741;48.964;9.406;2024-02-16T08:34:28;7.00;;;4.60;;
13343;SDS011;6741;48.964;9.406;2024-02-16T08:36:56;5.07;;;4.30;;
13343;SDS011;6741;48.964;9.406;2024-02-16T08:39:25;8.90;;;3.90;;
13343;SDS011;6741;48.964;9.406;2024-02-16T08:41:52;5.30;;;3.27;;
13343;SDS011;6741;48.964;9.406;2024-02-16T08:44:30;4.17;;;3.10;;
13343;SDS011;6741;48.964;9.406;2024-02-16T08:46:58;4.73;;;2.97;;
13343;SDS011;6741;48.964;9.406;2024-02-16T08:49:28;5.63;;;2.80;;
13343;SDS011;6741;48.964;9.406;2024-02-16T08:51:55;5.73;;;2.70;;
13343;SDS011;6741;48.964;9.406;2024-02-16T08:54:22;4.37;;;2.77;;
13343;SDS011;6741;48.964;9.406;2024-02-16T08:56:52;4.27;;;3.20;;
13343;SDS011;6741;48.964;9.406;2024-02-16T08:59:20;3.77;;;2.97;;
13343;SDS011;6741;48.964;9.406;2024-02-16T09:01:47;2.80;;;2.50;;
13343;SDS011;6741;48.964;9.406;2024-02-16T09:04:14;2.33;;;2.13;;
13343;SDS011;6741;48.964;9.406;2024-02-16T09:06:42;2.73;;;2.17;;
13343;SDS011;6741;48.964;9.406;2024-02-16T09:09:08;2.60;;;2.40;;
13343;SDS011;6741;48.964;9.406;2024-02-16T09:11:37;3.87;;;3.13;;
13343;SDS011;6741;48.964;9.406;2024-02-16T09:14:04;5.43;;;2.60;;
13343;SDS011;6741;48.964;9.406;2024-02-16T09:16:30;3.03;;;2.33;;
13343;SDS011;6741;48.964;9.406;2024-02-16T09:18:58;2.50;;;2.30;;
13343;SDS011;6741;48.964;9.406;2024-02-16T09:21:25;2.10;;;1.93;;
13343;SDS011;6741;48.964;9.406;2024-02-16T09:23:54;2.67;;;2.20;;
13343;SDS011;6741;48.964;9.406;2024-02-16T09:26:26;2.22;;;2.03;;
13343;SDS011;6741;48.964;9.406;2024-02-16T09:28:56;1.93;;;1.67;;
13343;SDS011;6741;48.964;9.406;2024-02-16T09:31:23;2.28;;;2.08;;
13343;SDS011;6741;48.964;9.406;2024-02-16T09:33:50;3.25;;;2.50;;
13343;SDS011;6741;48.964;9.406;2024-02-16T09:36:18;2.70;;;2.25;;
13343;SDS011;6741;48.964;9.406;2024-02-16T09:38:45;3.05;;;2.08;;
13343;SDS011;6741;48.964;9.406;2024-02-16T09:41:12;2.30;;;2.10;;
13343;SDS011;6741;48.964;9.406;2024-02-16T09:43:41;3.72;;;2.55;;
13343;SDS011;6741;48.964;9.406;2024-02-16T09:46:09;2.83;;;2.45;;
13343;SDS011;6741;48.964;9.406;2024-02-16T09:48:36;4.15;;;2.42;;
13343;SDS011;6741;48.964;9.406;2024-02-16T09:51:08;2.50;;;2.30;;
13343;SDS011;6741;48.964;9.406;2024-02-16T09:53:36;2.33;;;2.10;;
13343;SDS011;6741;48.964;9.406;2024-02-16T09:56:04;3.45;;;2.70;;
13343;SDS011;6741;48.964;9.406;2024-02-16T09:58:34;4.13;;;2.63;;
13343;SDS011;6741;48.964;9.406;2024-02-16T10:01:01;3.55;;;2.25;;
13343;SDS011;6741;48.964;9.406;2024-02-16T10:03:30;4.18;;;2.75;;
13343;SDS011;6741;48.964;9.406;2024-02-16T10:06:05;2.40;;;2.20;;
13343;SDS011;6741;48.964;9.406;2024-02-16T10:08:32;4.05;;;2.30;;
13343;SDS011;6741;48.964;9.406;2024-02-16T10:11:00;4.05;;;2.53;;
13343;SDS011;6741;48.964;9.406;2024-02-16T10:13:28;3.60;;;2.70;;
13343;SDS011;6741;48.964;9.406;2024-02-16T10:16:03;2.40;;;2.20;;
13343;SDS011;6741;48.964;9.406;2024-02-16T10:18:35;4.85;;;2.60;;
13343;SDS011;6741;48.964;9.406;2024-02-16T10:21:02;3.38;;;2.60;;
13343;SDS011;6741;48.964;9.406;2024-02-16T10:23:29;4.18;;;2.67;;
13343;SDS011;6741;48.964;9.406;2024-02-16T10:25:57;4.63;;;2.50;;
13343;SDS011;6741;48.964;9.406;2024-02-16T10:28:25;4.18;;;2.35;;
13343;SDS011;6741;48.964;9.406;2024-02-16T10:30:57;4.10;;;2.80;;
13343;SDS011;6741;48.964;9.406;2024-02-16T10:33:26;3.78;;;2.70;;
13343;SDS011;6741;48.964;9.406;2024-02-16T10:35:56;3.47;;;2.33;;
13343;SDS011;6741;48.964;9.406;2024-02-16T10:38:24;5.05;;;2.80;;
13343;SDS011;6741;48.964;9.406;2024-02-16T10:40:52;5.10;;;2.30;;
13343;SDS011;6741;48.964;9.406;2024-02-16T10:43:20;2.58;;;2.30;;
13343;SDS011;6741;48.964;9.406;2024-02-16T10:45:48;7.72;;;2.70;;
13343;SDS011;6741;48.964;9.406;2024-02-16T10:48:17;4.00;;;2.47;;
13343;SDS011;6741;48.964;9.406;2024-02-16T10:50:45;6.10;;;2.90;;
13343;SDS011;6741;48.964;9.406;2024-02-16T10:53:14;3.83;;;2.30;;
13343;SDS011;6741;48.964;9.406;2024-02-16T10:55:44;5.60;;;2.60;;
13343;SDS011;6741;48.964;9.406;2024-02-16T10:58:11;2.55;;;2.35;;
13343;SDS011;6741;48.964;9.406;2024-02-16T11:00:47;5.80;;;2.50;;
13343;SDS011;6741;48.964;9.406;2024-02-16T11:03:16;2.95;;;2.17;;
13343;SDS011;6741;48.964;9.406;2024-02-16T11:05:46;3.92;;;2.40;;
13343;SDS011;6741;48.964;9.406;2024-02-16T11:08:14;3.72;;;2.25;;
13343;SDS011;6741;48.964;9.406;2024-02-16T11:10:53;5.85;;;2.30;;
13343;SDS011;6741;48.964;9.406;2024-02-16T11:13:22;3.55;;;2.45;;
13343;SDS011;6741;48.964;9.406;2024-02-16T11:15:56;6.05;;;2.50;;
13343;SDS011;6741;48.964;9.406;2024-02-16T11:18:28;2.40;;;1.95;;
13343;SDS011;6741;48.964;9.406;2024-02-16T11:20:59;3.85;;;2.65;;
13343;SDS011;6741;48.964;9.406;2024-02-16T11:23:29;6.25;;;2.40;;
13343;SDS011;6741;48.964;9.406;2024-02-16T11:26:00;3.53;;;2.03;;
13343;SDS011;6741;48.964;9.406;2024-02-16T11:28:30;3.42;;;2.20;;
13343;SDS011;6741;48.964;9.406;2024-02-16T11:30:59;3.05;;;2.28;;
13343;SDS011;6741;48.964;9.406;2024-02-16T11:33:27;2.00;;;1.80;;
13343;SDS011;6741;48.964;9.406;2024-02-16T11:35:56;3.40;;;1.77;;
13343;SDS011;6741;48.964;9.406;2024-02-16T11:38:24;3.33;;;2.45;;
13343;SDS011;6741;48.964;9.406;2024-02-16T11:40:56;3.13;;;2.13;;
13343;SDS011;6741;48.964;9.406;2024-02-16T11:43:24;3.58;;;2.25;;
13343;SDS011;6741;48.964;9.406;2024-02-16T11:45:52;2.58;;;1.85;;
13343;SDS011;6741;48.964;9.406;2024-02-16T11:48:19;3.08;;;1.85;;
13343;SDS011;6741;48.964;9.406;2024-02-16T11:50:47;6.10;;;1.85;;
13343;SDS011;6741;48.964;9.406;2024-02-16T11:53:15;2.80;;;2.20;;
13343;SDS011;6741;48.964;9.406;2024-02-16T11:55:46;2.47;;;1.73;;
13343;SDS011;6741;48.964;9.406;2024-02-16T11:58:15;2.85;;;1.77;;
13343;SDS011;6741;48.964;9.406;2024-02-16T12:00:44;2.50;;;1.70;;
13343;SDS011;6741;48.964;9.406;2024-02-16T12:03:17;2.53;;;1.50;;
13343;SDS011;6741;48.964;9.406;2024-02-16T12:05:51;2.33;;;1.77;;
13343;SDS011;6741;48.964;9.406;2024-02-16T12:08:19;3.05;;;2.00;;
13343;SDS011;6741;48.964;9.406;2024-02-16T12:10:47;2.10;;;1.90;;
13343;SDS011;6741;48.964;9.406;2024-02-16T12:13:17;2.08;;;1.52;;
13343;SDS011;6741;48.964;9.406;2024-02-16T12:15:45;3.13;;;1.77;;
13343;SDS011;6741;48.964;9.406;2024-02-16T12:18:19;3.05;;;1.80;;
13343;SDS011;6741;48.964;9.406;2024-02-16T12:20:56;2.90;;;1.60;;
13343;SDS011;6741;48.964;9.406;2024-02-16T12:23:24;3.92;;;2.20;;
13343;SDS011;6741;48.964;9.406;2024-02-16T12:25:52;4.32;;;1.90;;
13343;SDS011;6741;48.964;9.406;2024-02-16T12:28:23;3.33;;;1.70;;
13343;SDS011;6741;48.964;9.406;2024-02-16T12:30:52;2.30;;;1.65;;
13343;SDS011;6741;48.964;9.406;2024-02-16T12:33:19;4.70;;;1.90;;
13343;SDS011;6741;48.964;9.406;2024-02-16T12:35:47;3.28;;;1.85;;
13343;SDS011;6741;48.964;9.406;2024-02-16T12:38:15;6.55;;;2.75;;
13343;SDS011;6741;48.964;9.406;2024-02-16T12:40:44;4.43;;;1.80;;
13343;SDS011;6741;48.964;9.406;2024-02-16T12:43:11;5.20;;;2.28;;
13343;SDS011;6741;48.964;9.406;2024-02-16T12:45:40;5.07;;;2.10;;
13343;SDS011;6741;48.964;9.406;2024-02-16T12:48:08;2.85;;;1.88;;
13343;SDS011;6741;48.964;9.406;2024-02-16T12:50:38;2.92;;;1.75;;
13343;SDS011;6741;48.964;9.406;2024-02-16T12:53:06;1.85;;;1.73;;
13343;SDS011;6741;48.964;9.406;2024-02-16T12:55:34;3.67;;;2.10;;
13343;SDS011;6741;48.964;9.406;2024-02-16T12:58:02;2.53;;;2.08;;
13343;SDS011;6741;48.964;9.406;2024-02-16T13:00:30;3.35;;;2.00;;
13343;SDS011;6741;48.964;9.406;2024-02-16T13:02:58;2.40;;;2.08;;
13343;SDS011;6741;48.964;9.406;2024-02-16T13:05:25;6.30;;;2.33;;
13343;SDS011;6741;48.964;9.406;2024-02-16T13:07:52;2.67;;;1.83;;
13343;SDS011;6741;48.964;9.406;2024-02-16T13:10:19;4.07;;;2.20;;
13343;SDS011;6741;48.964;9.406;2024-02-16T13:12:46;3.70;;;2.25;;
13343;SDS011;6741;48.964;9.406;2024-02-16T13:15:13;2.22;;;1.90;;
13343;SDS011;6741;48.964;9.406;2024-02-16T13:17:40;3.80;;;2.50;;
13343;SDS011;6741;48.964;9.406;2024-02-16T13:20:09;5.68;;;2.58;;
13343;SDS011;6741;48.964;9.406;2024-02-16T13:22:36;4.32;;;1.80;;
13343;SDS011;6741;48.964;9.406;2024-02-16T13:25:03;4.22;;;2.28;;
13343;SDS011;6741;48.964;9.406;2024-02-16T13:27:30;2.53;;;2.10;;
13343;SDS011;6741;48.964;9.406;2024-02-16T13:29:57;3.88;;;2.10;;
13343;SDS011;6741;48.964;9.406;2024-02-16T13:32:24;2.38;;;1.98;;
13343;SDS011;6741;48.964;9.406;2024-02-16T13:34:52;3.05;;;1.88;;
13343;SDS011;6741;48.964;9.406;2024-02-16T13:37:23;3.20;;;1.80;;
13343;SDS011;6741;48.964;9.406;2024-02-16T13:39:50;2.83;;;1.95;;
13343;SDS011;6741;48.964;9.406;2024-02-16T13:42:17;4.30;;;2.22;;
13343;SDS011;6741;48.964;9.406;2024-02-16T13:44:45;3.58;;;2.05;;
13343;SDS011;6741;48.964;9.406;2024-02-16T13:47:12;3.80;;;2.00;;
13343;SDS011;6741;48.964;9.406;2024-02-16T13:49:39;6.15;;;2.58;;
13343;SDS011;6741;48.964;9.406;2024-02-16T13:52:06;4.72;;;1.67;;
13343;SDS011;6741;48.964;9.406;2024-02-16T13:54:35;2.55;;;1.80;;
13343;SDS011;6741;48.964;9.406;2024-02-16T13:57:02;2.92;;;2.20;;
13343;SDS011;6741;48.964;9.406;2024-02-16T13:59:29;4.18;;;2.30;;
13343;SDS011;6741;48.964;9.406;2024-02-16T14:01:58;5.63;;;2.22;;
13343;SDS011;6741;48.964;9.406;2024-02-16T14:04:25;4.07;;;2.30;;
13343;SDS011;6741;48.964;9.406;2024-02-16T14:06:52;4.13;;;2.08;;
13343;SDS011;6741;48.964;9.406;2024-02-16T14:09:19;4.72;;;2.03;;
13343;SDS011;6741;48.964;9.406;2024-02-16T14:11:47;2.35;;;2.05;;
13343;SDS011;6741;48.964;9.406;2024-02-16T14:14:14;2.72;;;1.92;;
13343;SDS011;6741;48.964;9.406;2024-02-16T14:16:41;3.50;;;1.98;;
13343;SDS011;6741;48.964;9.406;2024-02-16T14:19:08;3.50;;;2.17;;
13343;SDS011;6741;48.964;9.406;2024-02-16T14:21:35;7.43;;;2.38;;
13343;SDS011;6741;48.964;9.406;2024-02-16T14:24:02;5.78;;;1.95;;
13343;SDS011;6741;48.964;9.406;2024-02-16T14:26:29;8.98;;;2.65;;
13343;SDS011;6741;48.964;9.406;2024-02-16T14:28:57;8.00;;;2.35;;
13343;SDS011;6741;48.964;9.406;2024-02-16T14:31:24;5.43;;;2.58;;
13343;SDS011;6741;48.964;9.406;2024-02-16T14:33:51;3.63;;;2.88;;
13343;SDS011;6741;48.964;9.406;2024-02-16T14:36:18;5.07;;;2.67;;
13343;SDS011;6741;48.964;9.406;2024-02-16T14:38:45;3.85;;;2.63;;
13343;SDS011;6741;48.964;9.406;2024-02-16T14:41:12;5.60;;;3.45;;
13343;SDS011;6741;48.964;9.406;2024-02-16T14:43:41;7.13;;;3.00;;
13343;SDS011;6741;48.964;9.406;2024-02-16T14:46:10;7.18;;;3.70;;
13343;SDS011;6741;48.964;9.406;2024-02-16T14:48:37;7.40;;;4.18;;
13343;SDS011;6741;48.964;9.406;2024-02-16T14:51:04;9.95;;;4.18;;
13343;SDS011;6741;48.964;9.406;2024-02-16T14:53:31;6.88;;;4.28;;
13343;SDS011;6741;48.964;9.406;2024-02-16T14:55:58;9.27;;;4.72;;
13343;SDS011;6741;48.964;9.406;2024-02-16T14:58:25;12.68;;;5.25;;
13343;SDS011;6741;48.964;9.406;2024-02-16T15:00:52;15.57;;;6.53;;
13343;SDS011;6741;48.964;9.406;2024-02-16T15:03:20;13.52;;;6.93;;